sensor_id;sensor_type;location;lat;lon;timestamp;pressure;altitude;pressure_sealevel;temperature;humidity
53270;BME280;39159;45.634;9.420;2022-12-20T00:01:50;100367.56;;;4.08;100.00
53270;BME280;39159;45.634;9.420;2022-12-20T00:04:15;100366.50;;;4.09;100.00
53270;BME280;39159;45.634;9.420;2022-12-20T00:06:41;100358.38;;;4.09;100.00
53270;BME280;39159;45.634;9.420;2022-12-20T00:09:07;100356.28;;;4.11;100.00
53270;BME280;39159;45.634;9.420;2022-12-20T00:11:33;100354.66;;;4.10;100.00
53270;BME280;39159;45.634;9.420;2022-12-20T00:13:58;100358.97;;;4.11;100.00
53270;BME280;39159;45.634;9.420;2022-12-20T00:16:26;100364.63;;;4.09;100.00
53270;BME280;39159;45.634;9.420;2022-12-20T00:18:55;100362.16;;;4.08;100.00
53270;BME280;39159;45.634;9.420;2022-12-20T00:21:21;100358.63;;;4.07;100.00
53270;BME280;39159;45.634;9.420;2022-12-20T00:23:47;100351.13;;;4.09;100.00
53270;BME280;39159;45.634;9.420;2022-12-20T00:26:14;100351.94;;;4.10;100.00
53270;BME280;39159;45.634;9.420;2022-12-20T00:28:41;100344.88;;;4.09;100.00
53270;BME280;39159;45.634;9.420;2022-12-20T00:31:12;100340.91;;;4.11;100.00
53270;BME280;39159;45.634;9.420;2022-12-20T00:33:38;100339.94;;;4.06;100.00
53270;BME280;39159;45.634;9.420;2022-12-20T00:36:05;100332.53;;;4.01;100.00
53270;BME280;39159;45.634;9.420;2022-12-20T00:38:31;100333.56;;;4.00;100.00
53270;BME280;39159;45.634;9.420;2022-12-20T00:41:06;100324.44;;;4.01;100.00
53270;BME280;39159;45.634;9.420;2022-12-20T00:43:32;100334.44;;;4.01;100.00
53270;BME280;39159;45.634;9.420;2022-12-20T00:45:58;100326.53;;;3.99;100.00
53270;BME280;39159;45.634;9.420;2022-12-20T00:48:24;100315.75;;;3.99;100.00
53270;BME280;39159;45.634;9.420;2022-12-20T00:50:50;100318.22;;;4.01;100.00
53270;BME280;39159;45.634;9.420;2022-12-20T00:53:16;100320.06;;;4.00;100.00
53270;BME280;39159;45.634;9.420;2022-12-20T00:55:44;100322.78;;;4.00;100.00
53270;BME280;39159;45.634;9.420;2022-12-20T00:58:11;100325.72;;;3.99;100.00
53270;BME280;39159;45.634;9.420;2022-12-20T01:00:37;100320.91;;;4.01;100.00
53270;BME280;39159;45.634;9.420;2022-12-20T01:03:03;100319.72;;;3.97;100.00
53270;BME280;39159;45.634;9.420;2022-12-20T01:05:29;100326.75;;;3.98;100.00
53270;BME280;39159;45.634;9.420;2022-12-20T01:07:55;100323.03;;;3.99;100.00
53270;BME280;39159;45.634;9.420;2022-12-20T01:10:20;100304.72;;;4.01;100.00
53270;BME280;39159;45.634;9.420;2022-12-20T01:12:46;100310.13;;;4.01;100.00
53270;BME280;39159;45.634;9.420;2022-12-20T01:15:11;100304.25;;;4.04;100.00
53270;BME280;39159;45.634;9.420;2022-12-20T01:17:37;100292.84;;;4.02;100.00
53270;BME280;39159;45.634;9.420;2022-12-20T01:20:04;100298.94;;;3.97;100.00
53270;BME280;39159;45.634;9.420;2022-12-20T01:22:29;100297.06;;;3.98;100.00
53270;BME280;39159;45.634;9.420;2022-12-20T01:24:55;100293.91;;;4.01;100.00
53270;BME280;39159;45.634;9.420;2022-12-20T01:27:20;100300.81;;;3.97;100.00
53270;BME280;39159;45.634;9.420;2022-12-20T01:29:46;100298.00;;;3.91;100.00
53270;BME280;39159;45.634;9.420;2022-12-20T01:32:11;100298.34;;;3.95;100.00
53270;BME280;39159;45.634;9.420;2022-12-20T01:34:37;100289.44;;;3.94;100.00
53270;BME280;39159;45.634;9.420;2022-12-20T01:37:02;100303.41;;;3.91;100.00
53270;BME280;39159;45.634;9.420;2022-12-20T01:39:28;100288.59;;;3.94;100.00
53270;BME280;39159;45.634;9.420;2022-12-20T01:41:53;100294.00;;;3.94;100.00
53270;BME280;39159;45.634;9.420;2022-12-20T01:46:45;100293.19;;;3.93;100.00
53270;BME280;39159;45.634;9.420;2022-12-20T01:49:32;100298.94;;;3.97;100.00
53270;BME280;39159;45.634;9.420;2022-12-20T01:52:04;100299.16;;;3.95;100.00
53270;BME280;39159;45.634;9.420;2022-12-20T01:54:39;100291.66;;;3.98;100.00
53270;BME280;39159;45.634;9.420;2022-12-20T01:57:12;100287.91;;;3.99;100.00
53270;BME280;39159;45.634;9.420;2022-12-20T01:59:41;100292.25;;;4.00;100.00
53270;BME280;39159;45.634;9.420;2022-12-20T02:02:10;100279.81;;;3.99;100.00
53270;BME280;39159;45.634;9.420;2022-12-20T02:04:36;100286.25;;;3.98;100.00
53270;BME280;39159;45.634;9.420;2022-12-20T02:07:04;100284.63;;;3.97;100.00
53270;BME280;39159;45.634;9.420;2022-12-20T02:09:33;100279.00;;;3.98;100.00
53270;BME280;39159;45.634;9.420;2022-12-20T02:12:16;100279.34;;;4.02;100.00
53270;BME280;39159;45.634;9.420;2022-12-20T02:15:10;100265.81;;;4.02;100.00
53270;BME280;39159;45.634;9.420;2022-12-20T02:29:23;100252.44;;;3.95;100.00
53270;BME280;39159;45.634;9.420;2022-12-20T02:31:57;100253.25;;;3.95;100.00
53270;BME280;39159;45.634;9.420;2022-12-20T02:34:25;100252.78;;;3.99;100.00
53270;BME280;39159;45.634;9.420;2022-12-20T02:36:51;100261.72;;;3.99;100.00
53270;BME280;39159;45.634;9.420;2022-12-20T02:39:17;100261.13;;;3.97;100.00
53270;BME280;39159;45.634;9.420;2022-12-20T02:41:48;100254.09;;;3.96;100.00
53270;BME280;39159;45.634;9.420;2022-12-20T02:44:16;100259.50;;;3.96;100.00
53270;BME280;39159;45.634;9.420;2022-12-20T02:47:04;100250.53;;;3.95;100.00
53270;BME280;39159;45.634;9.420;2022-12-20T02:49:33;100249.50;;;3.97;100.00
53270;BME280;39159;45.634;9.420;2022-12-20T02:52:04;100252.44;;;3.95;100.00
53270;BME280;39159;45.634;9.420;2022-12-20T02:54:30;100244.69;;;3.99;100.00
53270;BME280;39159;45.634;9.420;2022-12-20T02:57:03;100241.88;;;3.93;100.00
53270;BME280;39159;45.634;9.420;2022-12-20T03:00:01;100243.63;;;3.88;100.00
53270;BME280;39159;45.634;9.420;2022-12-20T03:02:28;100244.31;;;3.83;100.00
53270;BME280;39159;45.634;9.420;2022-12-20T03:05:15;100242.66;;;3.82;100.00
53270;BME280;39159;45.634;9.420;2022-12-20T03:07:40;100242.66;;;3.82;100.00
53270;BME280;39159;45.634;9.420;2022-12-20T03:10:06;100244.41;;;3.77;100.00
53270;BME280;39159;45.634;9.420;2022-12-20T03:12:32;100245.22;;;3.77;100.00
53270;BME280;39159;45.634;9.420;2022-12-20T03:14:57;100245.69;;;3.74;100.00
53270;BME280;39159;45.634;9.420;2022-12-20T03:17:23;100245.69;;;3.74;100.00
53270;BME280;39159;45.634;9.420;2022-12-20T03:19:48;100247.34;;;3.75;100.00
53270;BME280;39159;45.634;9.420;2022-12-20T03:22:14;100232.53;;;3.78;100.00
53270;BME280;39159;45.634;9.420;2022-12-20T03:24:39;100240.31;;;3.74;100.00
53270;BME280;39159;45.634;9.420;2022-12-20T03:27:05;100242.75;;;3.76;100.00
53270;BME280;39159;45.634;9.420;2022-12-20T03:29:30;100225.41;;;3.83;100.00
53270;BME280;39159;45.634;9.420;2022-12-20T03:31:56;100223.31;;;3.85;100.00
53270;BME280;39159;45.634;9.420;2022-12-20T03:34:21;100219.53;;;3.86;100.00
53270;BME280;39159;45.634;9.420;2022-12-20T03:36:47;100225.63;;;3.82;100.00
53270;BME280;39159;45.634;9.420;2022-12-20T03:39:12;100216.44;;;3.71;100.00
53270;BME280;39159;45.634;9.420;2022-12-20T03:41:37;100222.31;;;3.68;100.00
53270;BME280;39159;45.634;9.420;2022-12-20T03:44:03;100224.22;;;3.67;100.00
53270;BME280;39159;45.634;9.420;2022-12-20T03:46:29;100221.63;;;3.72;100.00
53270;BME280;39159;45.634;9.420;2022-12-20T03:48:54;100219.28;;;3.76;100.00
53270;BME280;39159;45.634;9.420;2022-12-20T03:51:20;100217.41;;;3.77;100.00
53270;BME280;39159;45.634;9.420;2022-12-20T03:53:45;100214.50;;;3.78;100.00
53270;BME280;39159;45.634;9.420;2022-12-20T03:56:11;100209.91;;;3.79;100.00
53270;BME280;39159;45.634;9.420;2022-12-20T03:58:36;100204.50;;;3.79;100.00
53270;BME280;39159;45.634;9.420;2022-12-20T04:01:02;100211.31;;;3.81;100.00
53270;BME280;39159;45.634;9.420;2022-12-20T04:03:40;100211.91;;;3.83;100.00
53270;BME280;39159;45.634;9.420;2022-12-20T04:06:05;100201.91;;;3.84;100.00
53270;BME280;39159;45.634;9.420;2022-12-20T04:08:30;100212.94;;;3.82;100.00
53270;BME280;39159;45.634;9.420;2022-12-20T04:10:56;100211.91;;;3.83;100.00
53270;BME280;39159;45.634;9.420;2022-12-20T04:13:40;100202.41;;;3.81;100.00
53270;BME280;39159;45.634;9.420;2022-12-20T04:16:06;100205.31;;;3.79;100.00
53270;BME280;39159;45.634;9.420;2022-12-20T04:18:31;100196.63;;;3.77;100.00
53270;BME280;39159;45.634;9.420;2022-12-20T04:20:59;100192.88;;;3.78;100.00
53270;BME280;39159;45.634;9.420;2022-12-20T04:23:24;100194.53;;;3.79;100.00
53270;BME280;39159;45.634;9.420;2022-12-20T04:25:50;100200.72;;;3.80;100.00
53270;BME280;39159;45.634;9.420;2022-12-20T04:28:15;100191.22;;;3.77;100.00
53270;BME280;39159;45.634;9.420;2022-12-20T04:30:41;100197.69;;;3.76;100.00
53270;BME280;39159;45.634;9.420;2022-12-20T04:33:06;100190.63;;;3.75;100.00
53270;BME280;39159;45.634;9.420;2022-12-20T04:35:32;100192.03;;;3.78;100.00
53270;BME280;39159;45.634;9.420;2022-12-20T04:37:57;100194.16;;;3.76;100.00
53270;BME280;39159;45.634;9.420;2022-12-20T04:40:22;100186.31;;;3.74;100.00
53270;BME280;39159;45.634;9.420;2022-12-20T04:42:48;100187.34;;;3.73;100.00
53270;BME280;39159;45.634;9.420;2022-12-20T04:45:13;100193.59;;;3.73;100.00
53270;BME280;39159;45.634;9.420;2022-12-20T04:47:39;100189.00;;;3.74;100.00
53270;BME280;39159;45.634;9.420;2022-12-20T04:50:06;100183.59;;;3.74;100.00
53270;BME280;39159;45.634;9.420;2022-12-20T04:52:31;100184.63;;;3.73;100.00
53270;BME280;39159;45.634;9.420;2022-12-20T04:55:15;100175.72;;;3.72;100.00
53270;BME280;39159;45.634;9.420;2022-12-20T04:57:41;100183.81;;;3.72;100.00
53270;BME280;39159;45.634;9.420;2022-12-20T05:00:07;100182.53;;;3.75;100.00
53270;BME280;39159;45.634;9.420;2022-12-20T05:02:32;100175.03;;;3.77;100.00
53270;BME280;39159;45.634;9.420;2022-12-20T05:04:58;100173.50;;;3.81;100.00
53270;BME280;39159;45.634;9.420;2022-12-20T05:07:23;100171.03;;;3.80;100.00
53270;BME280;39159;45.634;9.420;2022-12-20T05:09:49;100173.13;;;3.78;100.00
53270;BME280;39159;45.634;9.420;2022-12-20T05:12:14;100171.88;;;3.80;100.00
53270;BME280;39159;45.634;9.420;2022-12-20T05:14:39;100166.47;;;3.80;100.00
53270;BME280;39159;45.634;9.420;2022-12-20T05:17:05;100175.25;;;3.76;100.00
53270;BME280;39159;45.634;9.420;2022-12-20T05:19:30;100177.63;;;3.72;100.00
53270;BME280;39159;45.634;9.420;2022-12-20T05:21:56;100179.84;;;3.75;100.00
53270;BME280;39159;45.634;9.420;2022-12-20T05:24:44;100179.97;;;3.80;100.00
53270;BME280;39159;45.634;9.420;2022-12-20T05:27:29;100180.44;;;3.89;100.00
53270;BME280;39159;45.634;9.420;2022-12-20T05:29:54;100173.97;;;4.02;100.00
53270;BME280;39159;45.634;9.420;2022-12-20T05:32:20;100181.25;;;4.13;100.00
53270;BME280;39159;45.634;9.420;2022-12-20T05:34:45;100180.22;;;4.14;100.00
53270;BME280;39159;45.634;9.420;2022-12-20T05:37:10;100179.03;;;4.10;100.00
53270;BME280;39159;45.634;9.420;2022-12-20T05:39:36;100186.69;;;4.01;100.00
53270;BME280;39159;45.634;9.420;2022-12-20T05:42:01;100171.75;;;3.99;100.00
53270;BME280;39159;45.634;9.420;2022-12-20T05:44:27;100174.22;;;4.00;100.00
53270;BME280;39159;45.634;9.420;2022-12-20T05:46:52;100174.69;;;3.97;100.00
53270;BME280;39159;45.634;9.420;2022-12-20T05:49:18;100179.50;;;3.95;100.00
53270;BME280;39159;45.634;9.420;2022-12-20T05:51:43;100179.16;;;3.91;100.00
53270;BME280;39159;45.634;9.420;2022-12-20T05:54:09;100171.66;;;3.93;100.00
53270;BME280;39159;45.634;9.420;2022-12-20T05:56:35;100173.97;;;4.02;100.00
53270;BME280;39159;45.634;9.420;2022-12-20T05:59:00;100170.84;;;4.05;100.00
53270;BME280;39159;45.634;9.420;2022-12-20T06:01:26;100167.06;;;4.06;100.00
53270;BME280;39159;45.634;9.420;2022-12-20T06:03:51;100167.06;;;4.06;100.00
53270;BME280;39159;45.634;9.420;2022-12-20T06:06:17;100166.47;;;4.04;100.00
53270;BME280;39159;45.634;9.420;2022-12-20T06:08:42;100164.25;;;4.01;100.00
53270;BME280;39159;45.634;9.420;2022-12-20T06:11:08;100166.94;;;4.01;100.00
53270;BME280;39159;45.634;9.420;2022-12-20T06:13:33;100168.47;;;3.97;100.00
53270;BME280;39159;45.634;9.420;2022-12-20T06:15:59;100169.28;;;3.97;100.00
53270;BME280;39159;45.634;9.420;2022-12-20T06:18:25;100174.91;;;3.95;100.00
53270;BME280;39159;45.634;9.420;2022-12-20T06:20:52;100173.88;;;3.85;100.00
53270;BME280;39159;45.634;9.420;2022-12-20T06:23:18;100171.19;;;3.85;100.00
53270;BME280;39159;45.634;9.420;2022-12-20T06:25:45;100176.22;;;3.81;100.00
53270;BME280;39159;45.634;9.420;2022-12-20T06:28:10;100172.09;;;3.79;100.00
53270;BME280;39159;45.634;9.420;2022-12-20T06:30:36;100177.38;;;3.73;100.00
53270;BME280;39159;45.634;9.420;2022-12-20T06:33:02;100174.09;;;3.71;100.00
53270;BME280;39159;45.634;9.420;2022-12-20T06:35:28;100176.78;;;3.71;100.00
53270;BME280;39159;45.634;9.420;2022-12-20T06:37:54;100174.44;;;3.75;100.00
53270;BME280;39159;45.634;9.420;2022-12-20T06:40:20;100176.09;;;3.76;100.00
53270;BME280;39159;45.634;9.420;2022-12-20T06:42:46;100170.44;;;3.78;100.00
53270;BME280;39159;45.634;9.420;2022-12-20T06:45:11;100170.91;;;3.74;100.00
53270;BME280;39159;45.634;9.420;2022-12-20T06:47:37;100162.69;;;3.69;100.00
53270;BME280;39159;45.634;9.420;2022-12-20T06:50:04;100166.22;;;3.70;100.00
53270;BME280;39159;45.634;9.420;2022-12-20T06:52:30;100166.81;;;3.72;100.00
53270;BME280;39159;45.634;9.420;2022-12-20T06:54:55;100167.03;;;3.70;100.00
53270;BME280;39159;45.634;9.420;2022-12-20T06:57:21;100169.28;;;3.73;100.00
53270;BME280;39159;45.634;9.420;2022-12-20T06:59:46;100158.13;;;3.70;100.00
53270;BME280;39159;45.634;9.420;2022-12-20T07:02:12;100163.03;;;3.73;100.00
53270;BME280;39159;45.634;9.420;2022-12-20T07:04:38;100165.28;;;3.76;100.00
53270;BME280;39159;45.634;9.420;2022-12-20T07:07:03;100176.69;;;3.78;100.00
53270;BME280;39159;45.634;9.420;2022-12-20T07:09:29;100173.13;;;3.78;100.00
53270;BME280;39159;45.634;9.420;2022-12-20T07:11:55;100168.34;;;3.80;100.00
53270;BME280;39159;45.634;9.420;2022-12-20T07:14:21;100166.94;;;3.77;100.00
53270;BME280;39159;45.634;9.420;2022-12-20T07:16:46;100168.94;;;3.82;100.00
53270;BME280;39159;45.634;9.420;2022-12-20T07:19:13;100169.84;;;3.76;100.00
53270;BME280;39159;45.634;9.420;2022-12-20T07:21:39;100174.22;;;3.77;100.00
53270;BME280;39159;45.634;9.420;2022-12-20T07:24:05;100175.41;;;3.81;100.00
53270;BME280;39159;45.634;9.420;2022-12-20T07:26:30;100177.03;;;3.82;100.00
53270;BME280;39159;45.634;9.420;2022-12-20T07:28:56;100188.63;;;3.82;100.00
53270;BME280;39159;45.634;9.420;2022-12-20T07:31:21;100195.81;;;3.77;100.00
53270;BME280;39159;45.634;9.420;2022-12-20T07:33:47;100186.66;;;3.78;100.00
53270;BME280;39159;45.634;9.420;2022-12-20T07:36:13;100189.13;;;3.79;100.00
53270;BME280;39159;45.634;9.420;2022-12-20T07:38:40;100188.91;;;3.81;100.00
53270;BME280;39159;45.634;9.420;2022-12-20T07:41:13;100186.53;;;3.84;100.00
53270;BME280;39159;45.634;9.420;2022-12-20T07:43:40;100172.59;;;3.87;100.00
53270;BME280;39159;45.634;9.420;2022-12-20T07:46:06;100175.28;;;3.87;100.00
53270;BME280;39159;45.634;9.420;2022-12-20T07:48:32;100169.88;;;3.87;100.00
53270;BME280;39159;45.634;9.420;2022-12-20T07:51:22;100178.09;;;3.92;100.00
53270;BME280;39159;45.634;9.420;2022-12-20T07:53:56;100175.41;;;3.92;100.00
53270;BME280;39159;45.634;9.420;2022-12-20T07:56:23;100175.97;;;3.94;100.00
53270;BME280;39159;45.634;9.420;2022-12-20T07:58:52;100178.69;;;3.94;100.00
53270;BME280;39159;45.634;9.420;2022-12-20T08:01:22;100184.69;;;3.97;100.00
53270;BME280;39159;45.634;9.420;2022-12-20T08:03:50;100170.47;;;4.01;100.00
53270;BME280;39159;45.634;9.420;2022-12-20T08:06:17;100170.94;;;3.98;100.00
53270;BME280;39159;45.634;9.420;2022-12-20T08:08:46;100181.50;;;4.00;100.00
53270;BME280;39159;45.634;9.420;2022-12-20T08:11:13;100179.16;;;4.03;100.00
53270;BME280;39159;45.634;9.420;2022-12-20T08:13:40;100179.88;;;3.99;100.00
53270;BME280;39159;45.634;9.420;2022-12-20T08:16:06;100188.31;;;4.02;100.00
53270;BME280;39159;45.634;9.420;2022-12-20T08:18:31;100170.00;;;4.04;100.00
53270;BME280;39159;45.634;9.420;2022-12-20T08:20:57;100174.47;;;3.99;100.00
53270;BME280;39159;45.634;9.420;2022-12-20T08:23:22;100173.16;;;4.01;100.00
53270;BME280;39159;45.634;9.420;2022-12-20T08:25:48;100171.28;;;4.02;100.00
53270;BME280;39159;45.634;9.420;2022-12-20T08:28:14;100166.25;;;4.05;100.00
53270;BME280;39159;45.634;9.420;2022-12-20T08:30:39;100161.44;;;4.07;100.00
53270;BME280;39159;45.634;9.420;2022-12-20T08:33:05;100166.84;;;4.07;100.00
53270;BME280;39159;45.634;9.420;2022-12-20T08:35:30;100166.25;;;4.05;100.00
53270;BME280;39159;45.634;9.420;2022-12-20T08:37:56;100158.72;;;4.07;100.00
53270;BME280;39159;45.634;9.420;2022-12-20T08:40:21;100164.72;;;4.09;100.00
53270;BME280;39159;45.634;9.420;2022-12-20T08:42:47;100167.44;;;4.09;100.00
53270;BME280;39159;45.634;9.420;2022-12-20T08:45:13;100157.44;;;4.10;100.00
53270;BME280;39159;45.634;9.420;2022-12-20T08:47:38;100171.97;;;4.09;100.00
53270;BME280;39159;45.634;9.420;2022-12-20T08:50:04;100162.34;;;4.13;100.00
53270;BME280;39159;45.634;9.420;2022-12-20T08:52:30;100164.13;;;4.19;100.00
53270;BME280;39159;45.634;9.420;2022-12-20T08:54:55;100166.69;;;4.26;100.00
53270;BME280;39159;45.634;9.420;2022-12-20T08:57:21;100166.22;;;4.29;100.00
53270;BME280;39159;45.634;9.420;2022-12-20T08:59:46;100163.66;;;4.34;100.00
53270;BME280;39159;45.634;9.420;2022-12-20T09:02:12;100155.41;;;4.41;100.00
53270;BME280;39159;45.634;9.420;2022-12-20T09:04:37;100164.69;;;4.45;100.00
53270;BME280;39159;45.634;9.420;2022-12-20T09:07:03;100170.44;;;4.48;100.00
53270;BME280;39159;45.634;9.420;2022-12-20T09:09:29;100170.19;;;4.50;100.00
53270;BME280;39159;45.634;9.420;2022-12-20T09:11:54;100164.78;;;4.50;100.00
53270;BME280;39159;45.634;9.420;2022-12-20T09:14:20;100166.81;;;4.43;100.00
53270;BME280;39159;45.634;9.420;2022-12-20T09:16:45;100165.63;;;4.39;100.00
53270;BME280;39159;45.634;9.420;2022-12-20T09:19:12;100171.28;;;4.37;100.00
53270;BME280;39159;45.634;9.420;2022-12-20T09:21:38;100166.34;;;4.34;100.00
53270;BME280;39159;45.634;9.420;2022-12-20T09:24:04;100160.09;;;4.33;100.00
53270;BME280;39159;45.634;9.420;2022-12-20T09:26:30;100163.38;;;4.35;100.00
53270;BME280;39159;45.634;9.420;2022-12-20T09:28:57;100161.63;;;4.41;100.00
53270;BME280;39159;45.634;9.420;2022-12-20T09:31:24;100162.69;;;4.40;100.00
53270;BME280;39159;45.634;9.420;2022-12-20T09:33:55;100167.25;;;4.40;100.00
53270;BME280;39159;45.634;9.420;2022-12-20T09:36:23;100165.97;;;4.42;100.00
53270;BME280;39159;45.634;9.420;2022-12-20T09:38:48;100172.66;;;4.40;100.00
53270;BME280;39159;45.634;9.420;2022-12-20T09:41:32;100169.16;;;4.39;100.00
53270;BME280;39159;45.634;9.420;2022-12-20T09:44:02;100173.84;;;4.44;100.00
53270;BME280;39159;45.634;9.420;2022-12-20T09:46:29;100171.72;;;4.46;100.00
53270;BME280;39159;45.634;9.420;2022-12-20T09:48:54;100169.25;;;4.56;100.00
53270;BME280;39159;45.634;9.420;2022-12-20T09:52:04;100172.19;;;4.54;100.00
53270;BME280;39159;45.634;9.420;2022-12-20T10:12:02;100147.94;;;4.71;100.00
53270;BME280;39159;45.634;9.420;2022-12-20T10:17:09;100147.31;;;4.81;100.00
53270;BME280;39159;45.634;9.420;2022-12-20T10:22:18;100146.44;;;4.92;100.00
53270;BME280;39159;45.634;9.420;2022-12-20T10:24:52;100139.72;;;4.95;100.00
53270;BME280;39159;45.634;9.420;2022-12-20T10:27:20;100146.31;;;4.99;100.00
53270;BME280;39159;45.634;9.420;2022-12-20T10:29:48;100137.09;;;5.00;100.00
53270;BME280;39159;45.634;9.420;2022-12-20T10:32:17;100133.59;;;4.99;100.00
53270;BME280;39159;45.634;9.420;2022-12-20T10:37:37;100126.28;;;5.00;100.00
53270;BME280;39159;45.634;9.420;2022-12-20T10:40:03;100128.03;;;5.06;100.00
53270;BME280;39159;45.634;9.420;2022-12-20T10:42:38;100130.84;;;5.11;100.00
53270;BME280;39159;45.634;9.420;2022-12-20T10:45:32;100123.13;;;5.20;100.00
53270;BME280;39159;45.634;9.420;2022-12-20T10:48:00;100122.75;;;5.28;100.00
53270;BME280;39159;45.634;9.420;2022-12-20T10:50:25;100120.38;;;5.32;100.00
53270;BME280;39159;45.634;9.420;2022-12-20T10:55:38;100105.09;;;5.26;100.00
53270;BME280;39159;45.634;9.420;2022-12-20T11:01:12;100096.66;;;5.39;100.00
53270;BME280;39159;45.634;9.420;2022-12-20T11:03:55;100092.16;;;5.45;100.00
53270;BME280;39159;45.634;9.420;2022-12-20T11:06:26;100097.09;;;5.48;100.00
53270;BME280;39159;45.634;9.420;2022-12-20T11:08:52;100090.44;;;5.55;100.00
53270;BME280;39159;45.634;9.420;2022-12-20T11:13:44;100086.50;;;5.63;100.00
53270;BME280;39159;45.634;9.420;2022-12-20T11:16:34;100086.22;;;5.65;100.00
53270;BME280;39159;45.634;9.420;2022-12-20T11:40:43;100039.25;;;5.93;100.00
53270;BME280;39159;45.634;9.420;2022-12-20T11:43:30;100042.03;;;5.98;100.00
53270;BME280;39159;45.634;9.420;2022-12-20T11:46:25;100039.72;;;6.07;100.00
53270;BME280;39159;45.634;9.420;2022-12-20T11:54:26;100026.06;;;6.18;100.00
53270;BME280;39159;45.634;9.420;2022-12-20T11:56:58;100015.03;;;6.25;100.00
53270;BME280;39159;45.634;9.420;2022-12-20T11:59:41;100017.22;;;6.28;100.00
53270;BME280;39159;45.634;9.420;2022-12-20T12:02:56;100011.44;;;6.19;100.00
53270;BME280;39159;45.634;9.420;2022-12-20T12:05:04;100005.53;;;6.22;100.00
53270;BME280;39159;45.634;9.420;2022-12-20T12:07:32;99988.16;;;6.23;100.00
53270;BME280;39159;45.634;9.420;2022-12-20T12:10:19;99988.22;;;6.29;100.00
53270;BME280;39159;45.634;9.420;2022-12-20T12:15:31;99968.94;;;6.25;100.00
53270;BME280;39159;45.634;9.420;2022-12-20T12:18:07;99971.59;;;6.20;100.00
53270;BME280;39159;45.634;9.420;2022-12-20T12:26:26;99967.25;;;6.19;100.00
53270;BME280;39159;45.634;9.420;2022-12-20T12:29:14;99954.41;;;6.09;100.00
53270;BME280;39159;45.634;9.420;2022-12-20T12:32:01;99956.47;;;6.02;100.00
53270;BME280;39159;45.634;9.420;2022-12-20T12:45:08;99939.00;;;5.93;100.00
53270;BME280;39159;45.634;9.420;2022-12-20T12:50:26;99939.34;;;5.96;100.00
53270;BME280;39159;45.634;9.420;2022-12-20T12:52:55;99948.28;;;5.97;100.00
53270;BME280;39159;45.634;9.420;2022-12-20T12:55:42;99932.53;;;5.94;100.00
53270;BME280;39159;45.634;9.420;2022-12-20T12:58:30;99936.28;;;5.93;100.00
53270;BME280;39159;45.634;9.420;2022-12-20T13:04:08;99937.63;;;5.90;100.00
53270;BME280;39159;45.634;9.420;2022-12-20T13:11:29;99931.31;;;5.85;100.00
53270;BME280;39159;45.634;9.420;2022-12-20T13:21:55;99948.31;;;5.80;100.00
53270;BME280;39159;45.634;9.420;2022-12-20T13:27:13;99926.91;;;5.78;100.00
53270;BME280;39159;45.634;9.420;2022-12-20T13:29:57;99931.19;;;5.74;100.00
53270;BME280;39159;45.634;9.420;2022-12-20T13:40:39;99915.00;;;5.79;100.00
53270;BME280;39159;45.634;9.420;2022-12-20T13:45:42;99926.53;;;5.70;100.00
53270;BME280;39159;45.634;9.420;2022-12-20T13:48:14;99922.19;;;5.69;100.00
53270;BME280;39159;45.634;9.420;2022-12-20T13:50:48;99927.53;;;5.64;100.00
53270;BME280;39159;45.634;9.420;2022-12-20T13:53:17;99928.63;;;5.63;100.00
53270;BME280;39159;45.634;9.420;2022-12-20T13:55:43;99911.84;;;5.66;100.00
53270;BME280;39159;45.634;9.420;2022-12-20T13:58:15;99928.09;;;5.66;100.00
53270;BME280;39159;45.634;9.420;2022-12-20T14:00:43;99917.03;;;5.67;100.00
53270;BME280;39159;45.634;9.420;2022-12-20T14:03:20;99898.88;;;5.68;100.00
53270;BME280;39159;45.634;9.420;2022-12-20T14:05:47;99906.50;;;5.71;100.00
53270;BME280;39159;45.634;9.420;2022-12-20T14:08:15;99904.59;;;5.71;100.00
53270;BME280;39159;45.634;9.420;2022-12-20T14:10:42;99901.88;;;5.71;100.00
53270;BME280;39159;45.634;9.420;2022-12-20T14:13:25;99900.03;;;5.72;100.00
53270;BME280;39159;45.634;9.420;2022-12-20T14:15:51;99897.56;;;5.70;100.00
53270;BME280;39159;45.634;9.420;2022-12-20T14:18:22;99900.50;;;5.69;100.00
53270;BME280;39159;45.634;9.420;2022-12-20T14:20:58;99892.09;;;5.65;100.00
53270;BME280;39159;45.634;9.420;2022-12-20T14:23:44;99886.41;;;5.67;100.00
53270;BME280;39159;45.634;9.420;2022-12-20T14:26:16;99887.53;;;5.71;100.00
53270;BME280;39159;45.634;9.420;2022-12-20T14:33:50;99876.50;;;5.55;100.00
53270;BME280;39159;45.634;9.420;2022-12-20T14:38:46;99875.72;;;5.55;100.00
53270;BME280;39159;45.634;9.420;2022-12-20T14:41:53;99879.31;;;5.60;100.00
53270;BME280;39159;45.634;9.420;2022-12-20T14:44:21;99871.94;;;5.56;100.00
53270;BME280;39159;45.634;9.420;2022-12-20T14:46:55;99877.91;;;5.58;100.00
53270;BME280;39159;45.634;9.420;2022-12-20T14:51:47;99871.66;;;5.57;100.00
53270;BME280;39159;45.634;9.420;2022-12-20T14:54:31;99861.91;;;5.56;100.00
53270;BME280;39159;45.634;9.420;2022-12-20T14:56:57;99864.34;;;5.58;100.00
53270;BME280;39159;45.634;9.420;2022-12-20T14:59:27;99867.63;;;5.60;100.00
53270;BME280;39159;45.634;9.420;2022-12-20T15:01:54;99859.25;;;5.61;100.00
53270;BME280;39159;45.634;9.420;2022-12-20T15:04:37;99863.53;;;5.57;100.00
53270;BME280;39159;45.634;9.420;2022-12-20T15:07:02;99866.00;;;5.59;100.00
53270;BME280;39159;45.634;9.420;2022-12-20T15:09:28;99860.91;;;5.63;100.00
53270;BME280;39159;45.634;9.420;2022-12-20T15:11:55;99859.84;;;5.64;100.00
53270;BME280;39159;45.634;9.420;2022-12-20T15:14:27;99864.69;;;5.61;100.00
53270;BME280;39159;45.634;9.420;2022-12-20T15:16:55;99867.06;;;5.58;100.00
53270;BME280;39159;45.634;9.420;2022-12-20T15:19:21;99859.22;;;5.56;100.00